sensor_id;sensor_type;location;lat;lon;timestamp;P1;durP1;ratioP1;P2;durP2;ratioP2
10013;SDS011;45684;48.358;10.746;2023-06-26T00:01:48;10.30;;;9.43;;
10013;SDS011;45684;48.358;10.746;2023-06-26T00:04:15;10.87;;;10.07;;
10013;SDS011;45684;48.358;10.746;2023-06-26T00:06:43;10.63;;;9.73;;
10013;SDS011;45684;48.358;10.746;2023-06-26T00:09:13;10.90;;;10.00;;
10013;SDS011;45684;48.358;10.746;2023-06-26T00:11:40;10.57;;;9.77;;
10013;SDS011;45684;48.358;10.746;2023-06-26T00:14:08;10.43;;;9.53;;
10013;SDS011;45684;48.358;10.746;2023-06-26T00:16:36;11.07;;;10.07;;
10013;SDS011;45684;48.358;10.746;2023-06-26T00:19:04;11.37;;;10.47;;
10013;SDS011;45684;48.358;10.746;2023-06-26T00:21:32;12.20;;;11.23;;
10013;SDS011;45684;48.358;10.746;2023-06-26T00:23:59;12.07;;;11.13;;
10013;SDS011;45684;48.358;10.746;2023-06-26T00:26:28;13.10;;;12.07;;
10013;SDS011;45684;48.358;10.746;2023-06-26T00:28:56;12.67;;;11.50;;
10013;SDS011;45684;48.358;10.746;2023-06-26T00:31:24;14.27;;;12.87;;
10013;SDS011;45684;48.358;10.746;2023-06-26T00:33:52;13.90;;;12.90;;
10013;SDS011;45684;48.358;10.746;2023-06-26T00:36:22;13.43;;;12.43;;
10013;SDS011;45684;48.358;10.746;2023-06-26T00:38:52;13.60;;;12.60;;
10013;SDS011;45684;48.358;10.746;2023-06-26T00:41:20;13.63;;;12.47;;
10013;SDS011;45684;48.358;10.746;2023-06-26T00:43:51;13.13;;;12.17;;
10013;SDS011;45684;48.358;10.746;2023-06-26T00:46:18;13.13;;;12.17;;
10013;SDS011;45684;48.358;10.746;2023-06-26T00:48:47;13.80;;;12.80;;
10013;SDS011;45684;48.358;10.746;2023-06-26T00:51:16;13.03;;;11.90;;
10013;SDS011;45684;48.358;10.746;2023-06-26T00:53:44;14.03;;;13.03;;
10013;SDS011;45684;48.358;10.746;2023-06-26T00:56:12;13.50;;;12.40;;
10013;SDS011;45684;48.358;10.746;2023-06-26T00:58:40;13.63;;;12.43;;
10013;SDS011;45684;48.358;10.746;2023-06-26T01:01:09;13.57;;;12.63;;
10013;SDS011;45684;48.358;10.746;2023-06-26T01:03:42;13.63;;;12.63;;
10013;SDS011;45684;48.358;10.746;2023-06-26T01:06:11;14.03;;;12.77;;
10013;SDS011;45684;48.358;10.746;2023-06-26T01:08:42;13.23;;;12.23;;
10013;SDS011;45684;48.358;10.746;2023-06-26T01:11:10;13.40;;;12.40;;
10013;SDS011;45684;48.358;10.746;2023-06-26T01:13:40;13.03;;;12.00;;
10013;SDS011;45684;48.358;10.746;2023-06-26T01:16:11;12.63;;;11.63;;
10013;SDS011;45684;48.358;10.746;2023-06-26T01:18:40;13.27;;;12.27;;
10013;SDS011;45684;48.358;10.746;2023-06-26T01:21:09;13.23;;;12.20;;
10013;SDS011;45684;48.358;10.746;2023-06-26T01:23:38;13.53;;;12.33;;
10013;SDS011;45684;48.358;10.746;2023-06-26T01:26:18;12.53;;;11.50;;
10013;SDS011;45684;48.358;10.746;2023-06-26T01:28:48;13.57;;;12.50;;
10013;SDS011;45684;48.358;10.746;2023-06-26T01:31:18;13.13;;;12.17;;
10013;SDS011;45684;48.358;10.746;2023-06-26T01:33:47;13.27;;;12.33;;
10013;SDS011;45684;48.358;10.746;2023-06-26T01:36:19;13.10;;;12.10;;
10013;SDS011;45684;48.358;10.746;2023-06-26T01:38:47;13.60;;;12.53;;
10013;SDS011;45684;48.358;10.746;2023-06-26T01:41:15;13.43;;;12.43;;
10013;SDS011;45684;48.358;10.746;2023-06-26T01:46:42;13.40;;;12.40;;
10013;SDS011;45684;48.358;10.746;2023-06-26T01:49:20;12.63;;;11.63;;
10013;SDS011;45684;48.358;10.746;2023-06-26T01:51:55;13.87;;;12.83;;
10013;SDS011;45684;48.358;10.746;2023-06-26T01:54:30;13.80;;;12.70;;
10013;SDS011;45684;48.358;10.746;2023-06-26T01:57:05;14.10;;;13.03;;
10013;SDS011;45684;48.358;10.746;2023-06-26T01:59:37;15.07;;;14.03;;
10013;SDS011;45684;48.358;10.746;2023-06-26T02:02:07;14.00;;;13.00;;
10013;SDS011;45684;48.358;10.746;2023-06-26T02:04:36;12.47;;;11.57;;
10013;SDS011;45684;48.358;10.746;2023-06-26T02:07:05;12.57;;;11.57;;
10013;SDS011;45684;48.358;10.746;2023-06-26T02:09:33;13.60;;;12.50;;
10013;SDS011;45684;48.358;10.746;2023-06-26T02:12:00;15.73;;;14.63;;
10013;SDS011;45684;48.358;10.746;2023-06-26T02:14:28;14.53;;;13.43;;
10013;SDS011;45684;48.358;10.746;2023-06-26T02:16:58;13.57;;;12.57;;
10013;SDS011;45684;48.358;10.746;2023-06-26T02:19:26;13.77;;;12.67;;
10013;SDS011;45684;48.358;10.746;2023-06-26T02:21:54;13.63;;;12.63;;
10013;SDS011;45684;48.358;10.746;2023-06-26T02:24:23;13.07;;;12.07;;
10013;SDS011;45684;48.358;10.746;2023-06-26T02:26:51;14.50;;;13.43;;
10013;SDS011;45684;48.358;10.746;2023-06-26T02:29:19;15.47;;;14.47;;
10013;SDS011;45684;48.358;10.746;2023-06-26T02:31:46;13.60;;;12.60;;
10013;SDS011;45684;48.358;10.746;2023-06-26T02:34:16;14.63;;;13.53;;
10013;SDS011;45684;48.358;10.746;2023-06-26T02:36:44;17.40;;;16.30;;
10013;SDS011;45684;48.358;10.746;2023-06-26T02:39:13;17.37;;;16.20;;
10013;SDS011;45684;48.358;10.746;2023-06-26T02:41:41;15.90;;;14.70;;
10013;SDS011;45684;48.358;10.746;2023-06-26T02:44:10;18.70;;;17.30;;
10013;SDS011;45684;48.358;10.746;2023-06-26T02:46:38;18.77;;;17.67;;
10013;SDS011;45684;48.358;10.746;2023-06-26T02:49:07;19.13;;;18.00;;
10013;SDS011;45684;48.358;10.746;2023-06-26T02:51:37;22.70;;;21.30;;
10013;SDS011;45684;48.358;10.746;2023-06-26T02:54:14;20.17;;;18.67;;
10013;SDS011;45684;48.358;10.746;2023-06-26T02:56:44;17.53;;;16.13;;
10013;SDS011;45684;48.358;10.746;2023-06-26T02:59:15;17.47;;;16.30;;
10013;SDS011;45684;48.358;10.746;2023-06-26T03:01:44;19.37;;;18.17;;
10013;SDS011;45684;48.358;10.746;2023-06-26T03:04:12;19.93;;;18.70;;
10013;SDS011;45684;48.358;10.746;2023-06-26T03:06:43;21.07;;;19.57;;
10013;SDS011;45684;48.358;10.746;2023-06-26T03:09:11;22.80;;;21.30;;
10013;SDS011;45684;48.358;10.746;2023-06-26T03:11:38;26.03;;;24.43;;
10013;SDS011;45684;48.358;10.746;2023-06-26T03:14:06;25.53;;;23.93;;
10013;SDS011;45684;48.358;10.746;2023-06-26T03:16:34;25.73;;;24.30;;
10013;SDS011;45684;48.358;10.746;2023-06-26T03:19:02;22.50;;;21.10;;
10013;SDS011;45684;48.358;10.746;2023-06-26T03:21:39;23.63;;;22.13;;
10013;SDS011;45684;48.358;10.746;2023-06-26T03:24:08;25.73;;;24.23;;
10013;SDS011;45684;48.358;10.746;2023-06-26T03:26:36;24.90;;;23.47;;
10013;SDS011;45684;48.358;10.746;2023-06-26T03:29:04;20.17;;;18.77;;
10013;SDS011;45684;48.358;10.746;2023-06-26T03:31:33;21.77;;;20.43;;
10013;SDS011;45684;48.358;10.746;2023-06-26T03:34:02;22.23;;;20.77;;
10013;SDS011;45684;48.358;10.746;2023-06-26T03:36:31;24.03;;;22.63;;
10013;SDS011;45684;48.358;10.746;2023-06-26T03:38:59;22.70;;;21.40;;
10013;SDS011;45684;48.358;10.746;2023-06-26T03:41:29;23.90;;;22.50;;
10013;SDS011;45684;48.358;10.746;2023-06-26T03:43:56;24.40;;;22.97;;
10013;SDS011;45684;48.358;10.746;2023-06-26T03:46:32;26.03;;;24.40;;
10013;SDS011;45684;48.358;10.746;2023-06-26T03:49:00;26.70;;;25.20;;
10013;SDS011;45684;48.358;10.746;2023-06-26T03:51:28;25.13;;;23.63;;
10013;SDS011;45684;48.358;10.746;2023-06-26T03:53:55;22.40;;;20.90;;
10013;SDS011;45684;48.358;10.746;2023-06-26T03:56:23;21.70;;;20.30;;
10013;SDS011;45684;48.358;10.746;2023-06-26T03:58:52;19.17;;;17.87;;
10013;SDS011;45684;48.358;10.746;2023-06-26T04:01:20;19.60;;;18.40;;
10013;SDS011;45684;48.358;10.746;2023-06-26T04:03:49;23.63;;;22.27;;
10013;SDS011;45684;48.358;10.746;2023-06-26T04:06:16;20.53;;;19.23;;
10013;SDS011;45684;48.358;10.746;2023-06-26T04:08:44;22.93;;;21.23;;
10013;SDS011;45684;48.358;10.746;2023-06-26T04:11:12;23.50;;;22.17;;
10013;SDS011;45684;48.358;10.746;2023-06-26T04:13:40;22.03;;;20.73;;
10013;SDS011;45684;48.358;10.746;2023-06-26T04:16:09;26.97;;;25.37;;
10013;SDS011;45684;48.358;10.746;2023-06-26T04:18:37;26.00;;;24.60;;
10013;SDS011;45684;48.358;10.746;2023-06-26T04:21:06;25.73;;;24.20;;
10013;SDS011;45684;48.358;10.746;2023-06-26T04:23:35;25.17;;;23.57;;
10013;SDS011;45684;48.358;10.746;2023-06-26T04:26:03;26.10;;;24.50;;
10013;SDS011;45684;48.358;10.746;2023-06-26T04:28:31;26.70;;;25.20;;
10013;SDS011;45684;48.358;10.746;2023-06-26T04:30:59;26.73;;;25.13;;
10013;SDS011;45684;48.358;10.746;2023-06-26T04:33:28;27.40;;;25.70;;
10013;SDS011;45684;48.358;10.746;2023-06-26T04:35:56;26.43;;;24.93;;
10013;SDS011;45684;48.358;10.746;2023-06-26T04:38:24;26.13;;;24.63;;
10013;SDS011;45684;48.358;10.746;2023-06-26T04:40:52;31.67;;;29.97;;
10013;SDS011;45684;48.358;10.746;2023-06-26T04:43:19;42.57;;;40.40;;
10013;SDS011;45684;48.358;10.746;2023-06-26T04:45:47;41.37;;;39.27;;
10013;SDS011;45684;48.358;10.746;2023-06-26T04:48:15;35.83;;;33.83;;
10013;SDS011;45684;48.358;10.746;2023-06-26T04:50:44;35.33;;;33.47;;
10013;SDS011;45684;48.358;10.746;2023-06-26T04:53:19;39.87;;;37.60;;
10013;SDS011;45684;48.358;10.746;2023-06-26T04:55:47;39.27;;;37.00;;
10013;SDS011;45684;48.358;10.746;2023-06-26T04:58:15;37.90;;;35.90;;
10013;SDS011;45684;48.358;10.746;2023-06-26T05:00:42;38.60;;;36.40;;
10013;SDS011;45684;48.358;10.746;2023-06-26T05:03:11;40.60;;;38.50;;
10013;SDS011;45684;48.358;10.746;2023-06-26T05:05:39;37.43;;;35.10;;
10013;SDS011;45684;48.358;10.746;2023-06-26T05:08:15;36.93;;;34.73;;
10013;SDS011;45684;48.358;10.746;2023-06-26T05:10:44;39.73;;;37.60;;
10013;SDS011;45684;48.358;10.746;2023-06-26T05:13:12;37.63;;;35.53;;
10013;SDS011;45684;48.358;10.746;2023-06-26T05:15:43;38.87;;;36.57;;
10013;SDS011;45684;48.358;10.746;2023-06-26T05:18:11;38.03;;;35.93;;
10013;SDS011;45684;48.358;10.746;2023-06-26T05:20:39;43.07;;;40.77;;
10013;SDS011;45684;48.358;10.746;2023-06-26T05:23:08;41.80;;;39.67;;
10013;SDS011;45684;48.358;10.746;2023-06-26T05:25:40;42.37;;;39.73;;
10013;SDS011;45684;48.358;10.746;2023-06-26T05:28:08;39.63;;;37.27;;
10013;SDS011;45684;48.358;10.746;2023-06-26T05:30:42;49.73;;;47.07;;
10013;SDS011;45684;48.358;10.746;2023-06-26T05:33:10;58.43;;;55.70;;
10013;SDS011;45684;48.358;10.746;2023-06-26T05:35:39;56.37;;;53.67;;
10013;SDS011;45684;48.358;10.746;2023-06-26T05:38:09;59.80;;;56.93;;
10013;SDS011;45684;48.358;10.746;2023-06-26T05:40:37;15.13;;;14.03;;
10013;SDS011;45684;48.358;10.746;2023-06-26T05:43:08;12.40;;;11.40;;
10013;SDS011;45684;48.358;10.746;2023-06-26T05:45:36;12.23;;;11.13;;
10013;SDS011;45684;48.358;10.746;2023-06-26T05:48:04;12.53;;;11.33;;
10013;SDS011;45684;48.358;10.746;2023-06-26T05:50:32;11.37;;;10.47;;
10013;SDS011;45684;48.358;10.746;2023-06-26T05:53:01;11.63;;;10.63;;
10013;SDS011;45684;48.358;10.746;2023-06-26T05:55:30;11.97;;;10.63;;
10013;SDS011;45684;48.358;10.746;2023-06-26T05:57:58;12.00;;;11.03;;
10013;SDS011;45684;48.358;10.746;2023-06-26T06:00:29;11.13;;;10.13;;
10013;SDS011;45684;48.358;10.746;2023-06-26T06:02:57;11.37;;;10.27;;
10013;SDS011;45684;48.358;10.746;2023-06-26T06:05:25;11.03;;;10.03;;
10013;SDS011;45684;48.358;10.746;2023-06-26T06:07:53;11.00;;;10.00;;
10013;SDS011;45684;48.358;10.746;2023-06-26T06:10:21;10.53;;;9.67;;
10013;SDS011;45684;48.358;10.746;2023-06-26T06:12:48;10.87;;;9.97;;
10013;SDS011;45684;48.358;10.746;2023-06-26T06:15:16;11.03;;;9.53;;
10013;SDS011;45684;48.358;10.746;2023-06-26T06:17:46;10.10;;;9.30;;
10013;SDS011;45684;48.358;10.746;2023-06-26T06:20:13;10.87;;;9.97;;
10013;SDS011;45684;48.358;10.746;2023-06-26T06:22:41;9.83;;;9.03;;
10013;SDS011;45684;48.358;10.746;2023-06-26T06:25:09;10.43;;;9.50;;
10013;SDS011;45684;48.358;10.746;2023-06-26T06:27:37;10.63;;;9.80;;
10013;SDS011;45684;48.358;10.746;2023-06-26T06:30:05;10.17;;;9.27;;
10013;SDS011;45684;48.358;10.746;2023-06-26T06:32:34;10.03;;;9.13;;
10013;SDS011;45684;48.358;10.746;2023-06-26T06:35:04;10.03;;;9.23;;
10013;SDS011;45684;48.358;10.746;2023-06-26T06:37:36;10.40;;;9.50;;
10013;SDS011;45684;48.358;10.746;2023-06-26T06:40:05;10.13;;;9.27;;
10013;SDS011;45684;48.358;10.746;2023-06-26T06:42:34;9.90;;;9.20;;
10013;SDS011;45684;48.358;10.746;2023-06-26T06:45:02;10.27;;;9.37;;
10013;SDS011;45684;48.358;10.746;2023-06-26T06:47:31;10.37;;;9.53;;
10013;SDS011;45684;48.358;10.746;2023-06-26T06:49:59;10.70;;;9.77;;
10013;SDS011;45684;48.358;10.746;2023-06-26T06:52:36;9.77;;;8.87;;
10013;SDS011;45684;48.358;10.746;2023-06-26T06:55:06;10.17;;;9.27;;
10013;SDS011;45684;48.358;10.746;2023-06-26T06:57:35;9.53;;;8.73;;
10013;SDS011;45684;48.358;10.746;2023-06-26T07:00:05;9.87;;;9.07;;
10013;SDS011;45684;48.358;10.746;2023-06-26T07:02:36;9.93;;;9.13;;
10013;SDS011;45684;48.358;10.746;2023-06-26T07:05:04;9.50;;;8.80;;
10013;SDS011;45684;48.358;10.746;2023-06-26T07:07:33;9.37;;;8.67;;
10013;SDS011;45684;48.358;10.746;2023-06-26T07:10:04;10.67;;;9.07;;
10013;SDS011;45684;48.358;10.746;2023-06-26T07:12:34;9.77;;;8.97;;
10013;SDS011;45684;48.358;10.746;2023-06-26T07:15:03;10.37;;;9.47;;
10013;SDS011;45684;48.358;10.746;2023-06-26T07:17:32;9.80;;;8.90;;
10013;SDS011;45684;48.358;10.746;2023-06-26T07:20:04;9.23;;;8.43;;
10013;SDS011;45684;48.358;10.746;2023-06-26T07:22:34;9.73;;;8.73;;
10013;SDS011;45684;48.358;10.746;2023-06-26T07:25:07;9.87;;;9.07;;
10013;SDS011;45684;48.358;10.746;2023-06-26T07:27:36;9.73;;;8.93;;
10013;SDS011;45684;48.358;10.746;2023-06-26T07:30:04;9.13;;;8.40;;
10013;SDS011;45684;48.358;10.746;2023-06-26T07:32:32;9.17;;;8.47;;
10013;SDS011;45684;48.358;10.746;2023-06-26T07:35:00;9.50;;;8.80;;
10013;SDS011;45684;48.358;10.746;2023-06-26T07:37:27;9.45;;;8.65;;
10013;SDS011;45684;48.358;10.746;2023-06-26T07:39:55;9.80;;;8.90;;
10013;SDS011;45684;48.358;10.746;2023-06-26T07:42:25;9.13;;;8.43;;
10013;SDS011;45684;48.358;10.746;2023-06-26T07:44:53;9.82;;;8.93;;
10013;SDS011;45684;48.358;10.746;2023-06-26T07:47:20;9.10;;;8.30;;
10013;SDS011;45684;48.358;10.746;2023-06-26T07:49:48;9.02;;;8.32;;
10013;SDS011;45684;48.358;10.746;2023-06-26T07:52:17;9.27;;;8.55;;
10013;SDS011;45684;48.358;10.746;2023-06-26T07:54:46;9.00;;;8.30;;
10013;SDS011;45684;48.358;10.746;2023-06-26T07:57:14;8.88;;;8.23;;
10013;SDS011;45684;48.358;10.746;2023-06-26T07:59:43;9.15;;;8.45;;
10013;SDS011;45684;48.358;10.746;2023-06-26T08:02:11;9.13;;;8.38;;
10013;SDS011;45684;48.358;10.746;2023-06-26T08:04:38;9.15;;;8.25;;
10013;SDS011;45684;48.358;10.746;2023-06-26T08:07:06;10.23;;;9.15;;
10013;SDS011;45684;48.358;10.746;2023-06-26T08:09:34;9.57;;;8.65;;
10013;SDS011;45684;48.358;10.746;2023-06-26T08:12:03;9.32;;;8.52;;
10013;SDS011;45684;48.358;10.746;2023-06-26T08:14:33;9.02;;;8.32;;
10013;SDS011;45684;48.358;10.746;2023-06-26T08:17:02;8.40;;;7.72;;
10013;SDS011;45684;48.358;10.746;2023-06-26T08:19:31;8.82;;;8.13;;
10013;SDS011;45684;48.358;10.746;2023-06-26T08:21:58;8.60;;;7.90;;
10013;SDS011;45684;48.358;10.746;2023-06-26T08:24:26;8.85;;;8.20;;
10013;SDS011;45684;48.358;10.746;2023-06-26T08:26:54;8.75;;;7.82;;
10013;SDS011;45684;48.358;10.746;2023-06-26T08:29:22;8.88;;;8.27;;
10013;SDS011;45684;48.358;10.746;2023-06-26T08:31:49;9.48;;;8.77;;
10013;SDS011;45684;48.358;10.746;2023-06-26T08:34:18;8.98;;;8.27;;
10013;SDS011;45684;48.358;10.746;2023-06-26T08:36:46;9.10;;;8.30;;
10013;SDS011;45684;48.358;10.746;2023-06-26T08:39:14;9.10;;;8.30;;
10013;SDS011;45684;48.358;10.746;2023-06-26T08:41:42;8.50;;;7.90;;
10013;SDS011;45684;48.358;10.746;2023-06-26T08:44:10;8.95;;;8.13;;
10013;SDS011;45684;48.358;10.746;2023-06-26T08:46:38;9.43;;;8.60;;
10013;SDS011;45684;48.358;10.746;2023-06-26T08:49:08;8.90;;;8.20;;
10013;SDS011;45684;48.358;10.746;2023-06-26T08:51:45;8.40;;;7.80;;
10013;SDS011;45684;48.358;10.746;2023-06-26T08:54:23;8.20;;;7.50;;
10013;SDS011;45684;48.358;10.746;2023-06-26T08:57:01;8.13;;;7.53;;
10013;SDS011;45684;48.358;10.746;2023-06-26T08:59:32;8.32;;;7.72;;
10013;SDS011;45684;48.358;10.746;2023-06-26T09:02:00;8.50;;;7.90;;
10013;SDS011;45684;48.358;10.746;2023-06-26T09:04:29;7.68;;;7.18;;
10013;SDS011;45684;48.358;10.746;2023-06-26T09:06:59;8.13;;;7.63;;
10013;SDS011;45684;48.358;10.746;2023-06-26T09:09:27;7.88;;;7.28;;
10013;SDS011;45684;48.358;10.746;2023-06-26T09:11:55;7.10;;;6.70;;
10013;SDS011;45684;48.358;10.746;2023-06-26T09:14:23;7.45;;;6.93;;
10013;SDS011;45684;48.358;10.746;2023-06-26T09:16:51;7.63;;;7.13;;
10013;SDS011;45684;48.358;10.746;2023-06-26T09:19:19;7.90;;;7.30;;
10013;SDS011;45684;48.358;10.746;2023-06-26T09:21:49;7.55;;;7.00;;
10013;SDS011;45684;48.358;10.746;2023-06-26T09:24:19;7.60;;;7.00;;
10013;SDS011;45684;48.358;10.746;2023-06-26T09:26:48;7.40;;;6.90;;
10013;SDS011;45684;48.358;10.746;2023-06-26T09:29:18;7.70;;;7.10;;
10013;SDS011;45684;48.358;10.746;2023-06-26T09:31:47;6.95;;;6.45;;
10013;SDS011;45684;48.358;10.746;2023-06-26T09:34:14;7.40;;;6.80;;
10013;SDS011;45684;48.358;10.746;2023-06-26T09:36:42;7.15;;;6.65;;
10013;SDS011;45684;48.358;10.746;2023-06-26T09:39:13;7.65;;;6.95;;
10013;SDS011;45684;48.358;10.746;2023-06-26T09:41:43;7.38;;;6.88;;
10013;SDS011;45684;48.358;10.746;2023-06-26T09:44:11;7.30;;;6.70;;
10013;SDS011;45684;48.358;10.746;2023-06-26T09:46:41;6.70;;;6.20;;
10013;SDS011;45684;48.358;10.746;2023-06-26T09:49:12;7.30;;;6.80;;
10013;SDS011;45684;48.358;10.746;2023-06-26T09:51:40;7.10;;;6.60;;
10013;SDS011;45684;48.358;10.746;2023-06-26T09:54:09;6.95;;;6.45;;
10013;SDS011;45684;48.358;10.746;2023-06-26T09:56:37;6.63;;;6.15;;
10013;SDS011;45684;48.358;10.746;2023-06-26T09:59:07;6.70;;;6.30;;
10013;SDS011;45684;48.358;10.746;2023-06-26T10:01:36;7.03;;;6.40;;
10013;SDS011;45684;48.358;10.746;2023-06-26T10:04:09;7.00;;;6.40;;
10013;SDS011;45684;48.358;10.746;2023-06-26T10:06:38;6.55;;;6.05;;
10013;SDS011;45684;48.358;10.746;2023-06-26T10:09:13;7.03;;;6.53;;
10013;SDS011;45684;48.358;10.746;2023-06-26T10:11:45;7.28;;;6.78;;
10013;SDS011;45684;48.358;10.746;2023-06-26T10:14:17;6.88;;;6.30;;
10013;SDS011;45684;48.358;10.746;2023-06-26T10:16:48;6.30;;;5.70;;
10013;SDS011;45684;48.358;10.746;2023-06-26T10:19:18;6.60;;;6.00;;
10013;SDS011;45684;48.358;10.746;2023-06-26T10:21:51;6.70;;;6.22;;
10013;SDS011;45684;48.358;10.746;2023-06-26T10:24:20;6.57;;;6.15;;
10013;SDS011;45684;48.358;10.746;2023-06-26T10:26:50;6.80;;;6.32;;
10013;SDS011;45684;48.358;10.746;2023-06-26T10:29:23;7.38;;;6.38;;
10013;SDS011;45684;48.358;10.746;2023-06-26T10:31:52;6.72;;;6.22;;
10013;SDS011;45684;48.358;10.746;2023-06-26T10:34:24;6.90;;;6.35;;
10013;SDS011;45684;48.358;10.746;2023-06-26T10:36:58;6.47;;;6.07;;
10013;SDS011;45684;48.358;10.746;2023-06-26T10:39:27;6.55;;;6.05;;
10013;SDS011;45684;48.358;10.746;2023-06-26T10:41:55;6.70;;;6.20;;
10013;SDS011;45684;48.358;10.746;2023-06-26T10:44:41;6.85;;;6.18;;
10013;SDS011;45684;48.358;10.746;2023-06-26T10:47:10;6.65;;;6.15;;
10013;SDS011;45684;48.358;10.746;2023-06-26T10:49:38;6.60;;;6.10;;
10013;SDS011;45684;48.358;10.746;2023-06-26T10:52:07;6.95;;;6.45;;
10013;SDS011;45684;48.358;10.746;2023-06-26T10:54:35;6.90;;;6.30;;
10013;SDS011;45684;48.358;10.746;2023-06-26T10:57:04;7.95;;;6.25;;
10013;SDS011;45684;48.358;10.746;2023-06-26T10:59:38;7.85;;;7.07;;
10013;SDS011;45684;48.358;10.746;2023-06-26T11:02:08;7.55;;;6.85;;
10013;SDS011;45684;48.358;10.746;2023-06-26T11:04:38;7.38;;;6.68;;
10013;SDS011;45684;48.358;10.746;2023-06-26T11:07:17;8.57;;;6.50;;
10013;SDS011;45684;48.358;10.746;2023-06-26T11:09:53;7.90;;;7.30;;
10013;SDS011;45684;48.358;10.746;2023-06-26T11:12:35;6.82;;;6.22;;
10013;SDS011;45684;48.358;10.746;2023-06-26T11:15:07;7.30;;;6.50;;
10013;SDS011;45684;48.358;10.746;2023-06-26T11:17:35;7.40;;;6.68;;
10013;SDS011;45684;48.358;10.746;2023-06-26T11:20:05;6.65;;;6.18;;
10013;SDS011;45684;48.358;10.746;2023-06-26T11:22:34;7.43;;;6.93;;
10013;SDS011;45684;48.358;10.746;2023-06-26T11:25:03;7.25;;;6.75;;
10013;SDS011;45684;48.358;10.746;2023-06-26T11:27:35;6.65;;;6.25;;
10013;SDS011;45684;48.358;10.746;2023-06-26T11:30:08;7.40;;;6.90;;
10013;SDS011;45684;48.358;10.746;2023-06-26T11:32:37;7.35;;;6.70;;
10013;SDS011;45684;48.358;10.746;2023-06-26T11:35:06;7.20;;;6.63;;
10013;SDS011;45684;48.358;10.746;2023-06-26T11:37:35;7.45;;;6.88;;
10013;SDS011;45684;48.358;10.746;2023-06-26T11:40:16;7.00;;;6.50;;
10013;SDS011;45684;48.358;10.746;2023-06-26T11:42:45;7.13;;;6.63;;
10013;SDS011;45684;48.358;10.746;2023-06-26T11:45:14;7.10;;;6.57;;
10013;SDS011;45684;48.358;10.746;2023-06-26T11:47:42;6.85;;;6.25;;
10013;SDS011;45684;48.358;10.746;2023-06-26T11:50:14;6.93;;;6.43;;
10013;SDS011;45684;48.358;10.746;2023-06-26T11:52:43;7.05;;;6.50;;
10013;SDS011;45684;48.358;10.746;2023-06-26T11:55:12;7.40;;;6.70;;
10013;SDS011;45684;48.358;10.746;2023-06-26T11:57:39;6.60;;;6.20;;
10013;SDS011;45684;48.358;10.746;2023-06-26T12:00:11;6.80;;;6.22;;
10013;SDS011;45684;48.358;10.746;2023-06-26T12:02:41;6.57;;;6.13;;
10013;SDS011;45684;48.358;10.746;2023-06-26T12:05:09;6.82;;;6.25;;
10013;SDS011;45684;48.358;10.746;2023-06-26T12:07:39;6.97;;;6.47;;
10013;SDS011;45684;48.358;10.746;2023-06-26T12:10:08;7.45;;;6.75;;
10013;SDS011;45684;48.358;10.746;2023-06-26T12:12:38;6.75;;;6.30;;
10013;SDS011;45684;48.358;10.746;2023-06-26T12:15:07;7.15;;;6.45;;
10013;SDS011;45684;48.358;10.746;2023-06-26T12:17:37;6.47;;;6.07;;
10013;SDS011;45684;48.358;10.746;2023-06-26T12:20:18;6.25;;;5.78;;
10013;SDS011;45684;48.358;10.746;2023-06-26T12:22:48;6.85;;;6.22;;
10013;SDS011;45684;48.358;10.746;2023-06-26T12:25:21;6.70;;;6.10;;
10013;SDS011;45684;48.358;10.746;2023-06-26T12:27:50;6.93;;;6.32;;
10013;SDS011;45684;48.358;10.746;2023-06-26T12:30:18;8.55;;;6.50;;
10013;SDS011;45684;48.358;10.746;2023-06-26T12:32:46;6.57;;;6.07;;
10013;SDS011;45684;48.358;10.746;2023-06-26T12:35:14;6.97;;;6.38;;
10013;SDS011;45684;48.358;10.746;2023-06-26T12:37:45;7.05;;;6.45;;
10013;SDS011;45684;48.358;10.746;2023-06-26T12:40:17;6.13;;;5.63;;
10013;SDS011;45684;48.358;10.746;2023-06-26T12:42:49;6.70;;;6.10;;
10013;SDS011;45684;48.358;10.746;2023-06-26T12:45:17;6.80;;;6.30;;
10013;SDS011;45684;48.358;10.746;2023-06-26T12:47:49;6.53;;;6.03;;
10013;SDS011;45684;48.358;10.746;2023-06-26T12:50:17;6.25;;;5.75;;
10013;SDS011;45684;48.358;10.746;2023-06-26T12:52:46;6.30;;;5.90;;
10013;SDS011;45684;48.358;10.746;2023-06-26T12:55:17;6.78;;;6.38;;
10013;SDS011;45684;48.358;10.746;2023-06-26T12:57:44;6.93;;;6.32;;
10013;SDS011;45684;48.358;10.746;2023-06-26T13:00:13;7.22;;;6.63;;
10013;SDS011;45684;48.358;10.746;2023-06-26T13:02:41;6.53;;;6.05;;
10013;SDS011;45684;48.358;10.746;2023-06-26T13:05:09;6.47;;;6.03;;
10013;SDS011;45684;48.358;10.746;2023-06-26T13:07:38;6.65;;;6.15;;
10013;SDS011;45684;48.358;10.746;2023-06-26T13:10:07;7.00;;;6.50;;
10013;SDS011;45684;48.358;10.746;2023-06-26T13:12:38;6.97;;;6.38;;
10013;SDS011;45684;48.358;10.746;2023-06-26T13:15:07;6.72;;;6.32;;
10013;SDS011;45684;48.358;10.746;2023-06-26T13:17:35;7.20;;;6.78;;
10013;SDS011;45684;48.358;10.746;2023-06-26T13:20:04;7.07;;;6.60;;
10013;SDS011;45684;48.358;10.746;2023-06-26T13:22:34;7.05;;;6.55;;
10013;SDS011;45684;48.358;10.746;2023-06-26T13:25:02;6.78;;;6.30;;
10013;SDS011;45684;48.358;10.746;2023-06-26T13:27:32;6.75;;;6.25;;
10013;SDS011;45684;48.358;10.746;2023-06-26T13:29:59;6.90;;;6.40;;
10013;SDS011;45684;48.358;10.746;2023-06-26T13:32:28;6.97;;;6.50;;
10013;SDS011;45684;48.358;10.746;2023-06-26T13:34:56;6.70;;;6.20;;
10013;SDS011;45684;48.358;10.746;2023-06-26T13:37:25;6.90;;;6.40;;
10013;SDS011;45684;48.358;10.746;2023-06-26T13:39:52;7.25;;;6.65;;
10013;SDS011;45684;48.358;10.746;2023-06-26T13:42:20;8.25;;;6.07;;
10013;SDS011;45684;48.358;10.746;2023-06-26T13:44:50;6.70;;;6.10;;
10013;SDS011;45684;48.358;10.746;2023-06-26T13:47:29;6.80;;;6.40;;
10013;SDS011;45684;48.358;10.746;2023-06-26T13:49:57;6.97;;;6.45;;
10013;SDS011;45684;48.358;10.746;2023-06-26T13:52:25;6.75;;;6.20;;
10013;SDS011;45684;48.358;10.746;2023-06-26T13:54:53;6.82;;;6.22;;
10013;SDS011;45684;48.358;10.746;2023-06-26T13:57:21;6.50;;;6.05;;
10013;SDS011;45684;48.358;10.746;2023-06-26T13:59:50;7.40;;;6.90;;
10013;SDS011;45684;48.358;10.746;2023-06-26T14:02:18;6.82;;;6.35;;
10013;SDS011;45684;48.358;10.746;2023-06-26T14:04:46;6.80;;;6.40;;
10013;SDS011;45684;48.358;10.746;2023-06-26T14:07:14;7.10;;;6.50;;
10013;SDS011;45684;48.358;10.746;2023-06-26T14:09:42;7.20;;;6.53;;
10013;SDS011;45684;48.358;10.746;2023-06-26T14:12:11;6.57;;;6.07;;
10013;SDS011;45684;48.358;10.746;2023-06-26T14:14:39;7.28;;;6.70;;
10013;SDS011;45684;48.358;10.746;2023-06-26T14:17:08;7.35;;;6.85;;
10013;SDS011;45684;48.358;10.746;2023-06-26T14:19:39;7.15;;;6.55;;
10013;SDS011;45684;48.358;10.746;2023-06-26T14:22:07;7.20;;;6.50;;
10013;SDS011;45684;48.358;10.746;2023-06-26T14:24:35;7.00;;;6.45;;
10013;SDS011;45684;48.358;10.746;2023-06-26T14:27:03;7.07;;;6.57;;
10013;SDS011;45684;48.358;10.746;2023-06-26T14:29:31;7.47;;;6.85;;
10013;SDS011;45684;48.358;10.746;2023-06-26T14:31:59;6.90;;;6.30;;
10013;SDS011;45684;48.358;10.746;2023-06-26T14:34:28;6.72;;;6.22;;
10013;SDS011;45684;48.358;10.746;2023-06-26T14:36:59;7.07;;;6.57;;
10013;SDS011;45684;48.358;10.746;2023-06-26T14:39:27;39.95;;;7.93;;